createdAt,value
2024-02-12T00:00:45.154Z,82.20
2024-02-12T00:03:47.565Z,81.80
2024-02-12T00:06:49.720Z,81.40
2024-02-12T00:09:52.677Z,81.40
2024-02-12T00:12:54.813Z,81.50
2024-02-12T00:15:57.132Z,81.30
2024-02-12T00:18:59.320Z,81.00
2024-02-12T00:22:02.523Z,81.10
2024-02-12T00:25:04.970Z,81.00
2024-02-12T00:28:07.067Z,81.00
2024-02-12T00:31:09.176Z,80.90
2024-02-12T00:34:11.422Z,81.10
2024-02-12T00:37:14.383Z,81.00
2024-02-12T00:40:16.519Z,81.00
2024-02-12T00:43:18.932Z,80.90
2024-02-12T00:46:21.054Z,81.00
2024-02-12T00:49:23.315Z,81.10
2024-02-12T00:52:25.505Z,81.10
2024-02-12T00:55:27.596Z,81.20
2024-02-12T00:58:29.793Z,81.50
2024-02-12T01:01:31.948Z,82.00
2024-02-12T01:04:34.104Z,82.10
2024-02-12T01:07:40.316Z,82.10
2024-02-12T01:10:42.470Z,82.10
2024-02-12T01:13:44.639Z,82.20
2024-02-12T01:16:47.305Z,82.10
2024-02-12T01:19:49.810Z,82.30
2024-02-12T01:22:52.352Z,82.60
2024-02-12T01:25:54.670Z,82.50
2024-02-12T01:28:57.237Z,82.70
2024-02-12T01:31:59.470Z,82.30
2024-02-12T01:35:01.907Z,82.30
2024-02-12T01:38:04.229Z,82.30
2024-02-12T01:41:06.574Z,82.00
2024-02-12T01:44:08.938Z,82.20
2024-02-12T01:47:15.053Z,82.00
2024-02-12T01:50:23.482Z,81.60
2024-02-12T01:53:26.003Z,82.00
2024-02-12T01:56:30.578Z,81.60
2024-02-12T01:59:33.034Z,81.80
2024-02-12T02:02:35.279Z,81.50
2024-02-12T02:05:37.802Z,81.60
2024-02-12T02:08:41.295Z,81.80
2024-02-12T02:11:43.561Z,82.10
2024-02-12T02:14:47.263Z,82.40
2024-02-12T02:17:49.642Z,82.70
2024-02-12T02:20:55.151Z,82.80
2024-02-12T02:24:01.156Z,82.80
2024-02-12T02:27:03.415Z,82.80
2024-02-12T02:30:06.424Z,82.90
2024-02-12T02:33:08.862Z,82.90
2024-02-12T02:36:11.093Z,82.80
2024-02-12T02:39:13.436Z,82.80
2024-02-12T02:42:15.600Z,82.90
2024-02-12T02:45:18.184Z,82.60
2024-02-12T02:48:20.560Z,82.40
2024-02-12T02:51:26.835Z,82.40
2024-02-12T02:54:29.192Z,82.10
2024-02-12T02:57:31.443Z,81.90
2024-02-12T03:00:33.637Z,82.40
2024-02-12T03:03:36.020Z,82.10
2024-02-12T03:06:38.328Z,82.30
2024-02-12T03:09:40.665Z,82.10
2024-02-12T03:12:44.668Z,81.90
2024-02-12T03:15:47.402Z,81.80
2024-02-12T03:18:52.908Z,82.10
2024-02-12T03:21:55.114Z,81.90
2024-02-12T03:24:57.310Z,81.60
2024-02-12T03:27:59.530Z,81.70
2024-02-12T03:31:02.190Z,81.60
2024-02-12T03:34:04.820Z,81.80
2024-02-12T03:37:09.603Z,81.60
2024-02-12T03:40:12.576Z,81.70
2024-02-12T03:43:14.876Z,81.60
2024-02-12T03:46:22.980Z,81.70
2024-02-12T03:49:25.533Z,81.20
2024-02-12T03:52:27.953Z,81.40
2024-02-12T03:55:30.526Z,81.30
2024-02-12T03:58:32.849Z,81.10
2024-02-12T04:01:34.971Z,81.20
2024-02-12T04:04:37.202Z,81.00
2024-02-12T04:07:41.020Z,81.30
2024-02-12T04:10:44.070Z,81.10
2024-02-12T04:13:46.225Z,81.10
2024-02-12T04:16:49.541Z,81.10
2024-02-12T04:19:51.713Z,81.10
2024-02-12T04:22:54.226Z,81.10
2024-02-12T04:25:56.525Z,80.90
2024-02-12T04:29:01.788Z,80.90
2024-02-12T04:32:04.171Z,81.30
2024-02-12T04:35:07.319Z,81.40
2024-02-12T04:38:09.546Z,81.80
2024-02-12T04:41:12.572Z,82.00
2024-02-12T04:44:14.788Z,82.20
2024-02-12T04:47:17.009Z,82.30
2024-02-12T04:50:19.664Z,82.50
2024-02-12T04:53:21.784Z,82.10
2024-02-12T04:56:23.977Z,81.90
2024-02-12T04:59:26.340Z,81.70
2024-02-12T05:02:28.592Z,81.80
2024-02-12T05:05:30.793Z,81.90
2024-02-12T05:08:33.220Z,81.60
2024-02-12T05:11:35.525Z,81.80
2024-02-12T05:14:37.853Z,81.80
2024-02-12T05:17:40.300Z,81.70
2024-02-12T05:20:42.765Z,82.00
2024-02-12T05:23:45.000Z,82.00
2024-02-12T05:26:48.353Z,82.00
2024-02-12T05:29:50.479Z,81.50
2024-02-12T05:32:53.607Z,81.90
2024-02-12T05:35:55.726Z,81.50
2024-02-12T05:38:57.889Z,82.00
2024-02-12T05:41:59.967Z,82.00
2024-02-12T05:45:02.205Z,82.10
2024-02-12T05:48:04.723Z,82.30
2024-02-12T05:51:06.907Z,82.10
2024-02-12T05:54:09.500Z,82.20
2024-02-12T05:57:12.253Z,82.20
2024-02-12T06:00:14.798Z,82.20
2024-02-12T06:03:17.131Z,82.40
2024-02-12T06:06:19.538Z,82.00
2024-02-12T06:09:21.839Z,82.50
2024-02-12T06:12:23.899Z,82.60
2024-02-12T06:15:26.162Z,82.50
2024-02-12T06:18:29.168Z,82.20
2024-02-12T06:21:31.407Z,82.60
2024-02-12T06:24:33.973Z,82.60
2024-02-12T06:27:36.304Z,82.70
2024-02-12T06:30:38.535Z,82.50
2024-02-12T06:33:40.769Z,82.50
2024-02-12T06:36:42.891Z,82.30
2024-02-12T06:39:45.015Z,82.60
2024-02-12T06:42:47.752Z,82.60
2024-02-12T06:45:49.935Z,82.50
2024-02-12T06:48:52.166Z,82.40
2024-02-12T06:51:54.426Z,82.30
2024-02-12T06:54:56.540Z,82.40
2024-02-12T06:57:58.842Z,82.30
2024-02-12T07:01:01.131Z,82.40
2024-02-12T07:04:04.175Z,82.70
2024-02-12T07:07:14.718Z,82.60
2024-02-12T07:10:16.941Z,82.40
2024-02-12T07:13:19.194Z,82.00
2024-02-12T07:16:21.504Z,82.10
2024-02-12T07:19:23.978Z,81.80
2024-02-12T07:22:25.982Z,81.90
2024-02-12T07:25:28.046Z,81.60
2024-02-12T07:28:30.032Z,81.60
2024-02-12T07:31:32.083Z,81.20
2024-02-12T07:34:34.341Z,81.50
2024-02-12T07:37:38.333Z,81.20
2024-02-12T07:40:40.708Z,81.30
2024-02-12T07:43:42.632Z,81.40
2024-02-12T07:46:44.594Z,81.30
2024-02-12T07:49:46.566Z,81.00
2024-02-12T07:52:48.743Z,81.00
2024-02-12T07:55:50.689Z,79.80
2024-02-12T07:58:52.737Z,80.70
2024-02-12T08:01:54.950Z,80.60
2024-02-12T08:04:57.149Z,80.60
2024-02-12T08:08:03.461Z,80.90
2024-02-12T08:11:07.172Z,81.00
2024-02-12T08:14:09.271Z,80.90
2024-02-12T08:17:11.250Z,80.80
2024-02-12T08:20:13.425Z,80.60
2024-02-12T08:23:15.446Z,80.10
2024-02-12T08:26:17.552Z,80.20
2024-02-12T08:29:19.647Z,80.30
2024-02-12T08:32:21.733Z,79.50
2024-02-12T08:35:24.005Z,79.70
2024-02-12T08:38:26.136Z,79.20
2024-02-12T08:41:28.317Z,79.40
2024-02-12T08:44:30.525Z,78.90
2024-02-12T08:47:32.664Z,79.20
2024-02-12T08:50:35.271Z,79.60
2024-02-12T08:53:40.916Z,79.20
2024-02-12T08:56:43.131Z,79.70
2024-02-12T08:59:45.733Z,79.50
2024-02-12T09:02:48.110Z,79.40
2024-02-12T09:05:50.281Z,79.40
2024-02-12T09:08:52.339Z,79.70
2024-02-12T09:11:54.583Z,79.40
2024-02-12T09:14:59.184Z,78.90
2024-02-12T09:18:01.404Z,78.70
2024-02-12T09:21:03.818Z,78.10
2024-02-12T09:24:06.245Z,77.80
2024-02-12T09:27:08.785Z,76.60
2024-02-12T09:30:11.532Z,76.40
2024-02-12T09:33:17.313Z,76.30
2024-02-12T09:36:19.472Z,76.20
2024-02-12T09:39:21.729Z,75.90
2024-02-12T09:42:27.172Z,74.60
2024-02-12T09:45:29.933Z,74.60
2024-02-12T09:48:32.623Z,74.90
2024-02-12T09:51:35.090Z,74.70
2024-02-12T09:54:39.935Z,74.70
2024-02-12T09:57:42.626Z,73.50
2024-02-12T10:00:46.185Z,74.60
2024-02-12T10:03:48.370Z,74.10
2024-02-12T10:06:57.302Z,73.30
2024-02-12T10:09:59.277Z,72.80
2024-02-12T10:13:01.362Z,73.40
2024-02-12T10:16:05.903Z,73.50
2024-02-12T10:19:07.921Z,73.70
2024-02-12T10:22:09.927Z,73.70
2024-02-12T10:25:11.916Z,73.90
2024-02-12T10:28:14.844Z,73.10
2024-02-12T10:31:16.981Z,72.90
2024-02-12T10:34:19.111Z,73.00
2024-02-12T10:37:25.681Z,70.80
2024-02-12T10:40:33.823Z,71.30
2024-02-12T10:43:38.258Z,70.80
2024-02-12T10:46:41.027Z,69.80
2024-02-12T10:49:43.081Z,69.40
2024-02-12T10:52:45.083Z,69.20
2024-02-12T10:55:51.034Z,70.00
2024-02-12T10:58:53.252Z,70.40
2024-02-12T11:01:55.248Z,70.30
2024-02-12T11:04:57.306Z,69.90
2024-02-12T11:08:08.819Z,70.20
2024-02-12T11:11:19.283Z,70.70
2024-02-12T11:14:34.059Z,71.40
2024-02-12T11:17:36.250Z,71.10
2024-02-12T11:20:47.933Z,72.10
2024-02-12T11:23:50.219Z,72.60
2024-02-12T11:26:54.132Z,72.60
2024-02-12T11:29:57.425Z,73.10
2024-02-12T11:32:59.619Z,72.40
2024-02-12T11:36:08.879Z,73.10
2024-02-12T11:39:11.401Z,72.90
2024-02-12T11:42:13.509Z,73.20
2024-02-12T11:45:17.193Z,72.10
2024-02-12T11:48:19.901Z,71.70
2024-02-12T12:03:18.420Z,70.80
2024-02-12T12:06:23.893Z,71.20
2024-02-12T12:09:26.053Z,71.30
2024-02-12T12:12:28.173Z,71.40
2024-02-12T12:15:30.646Z,71.80
2024-02-12T12:18:33.081Z,71.00
2024-02-12T12:21:36.021Z,70.80
2024-02-12T12:24:38.526Z,70.70
2024-02-12T12:27:41.134Z,71.40
2024-02-12T12:30:43.390Z,71.40
2024-02-12T12:33:45.490Z,71.00
2024-02-12T12:36:47.665Z,70.80
2024-02-12T12:39:49.927Z,71.00
2024-02-12T12:42:51.986Z,70.90
2024-02-12T12:45:56.647Z,71.30
2024-02-12T12:48:58.682Z,73.60
2024-02-12T12:52:00.797Z,74.40
2024-02-12T12:55:03.804Z,73.70
2024-02-12T12:58:05.784Z,74.30
2024-02-12T13:01:07.899Z,75.70
2024-02-12T13:04:09.947Z,75.50
2024-02-12T13:07:14.986Z,75.50
2024-02-12T13:10:17.430Z,76.70
2024-02-12T13:13:19.443Z,76.00
2024-02-12T13:16:21.472Z,75.70
2024-02-12T13:19:23.624Z,77.70
2024-02-12T13:22:25.615Z,76.90
2024-02-12T13:25:32.747Z,77.30
2024-02-12T13:28:34.800Z,77.20
2024-02-12T13:31:37.109Z,77.10
2024-02-12T13:34:39.417Z,78.60
2024-02-12T13:37:41.691Z,78.90
2024-02-12T13:40:43.989Z,78.10
2024-02-12T13:43:46.107Z,77.70
2024-02-12T13:46:48.166Z,78.00
2024-02-12T13:49:50.210Z,77.40
2024-02-12T13:52:52.414Z,78.30
2024-02-12T13:55:54.384Z,77.80
2024-02-12T13:58:56.466Z,77.60
2024-02-12T14:02:03.624Z,76.80
2024-02-12T14:05:08.604Z,77.30
2024-02-12T14:08:10.778Z,76.90
2024-02-12T14:11:12.872Z,78.60
2024-02-12T14:14:14.922Z,77.20
2024-02-12T14:17:16.971Z,75.60
2024-02-12T14:20:20.931Z,75.50
2024-02-12T14:23:23.173Z,75.60
2024-02-12T14:26:25.317Z,74.20
2024-02-12T14:29:27.368Z,75.20
2024-02-12T14:32:40.056Z,76.10
2024-02-12T14:35:44.902Z,76.50
2024-02-12T14:38:47.748Z,75.90
2024-02-12T14:41:49.843Z,77.40
2024-02-12T14:44:53.789Z,77.20
2024-02-12T14:47:57.024Z,77.10
2024-02-12T14:50:59.376Z,76.90
2024-02-12T14:54:01.495Z,77.10
2024-02-12T14:57:04.556Z,76.30
2024-02-12T15:00:10.422Z,76.40
2024-02-12T15:03:12.520Z,76.50
2024-02-12T15:06:18.059Z,77.90
2024-02-12T15:09:20.166Z,77.80
2024-02-12T15:12:22.123Z,77.50
2024-02-12T15:15:24.289Z,77.70
2024-02-12T15:18:26.287Z,78.00
2024-02-12T15:21:28.419Z,77.50
2024-02-12T15:24:30.355Z,76.80
2024-02-12T15:27:32.463Z,75.50
2024-02-12T15:30:39.014Z,75.70
2024-02-12T15:33:42.152Z,75.70
2024-02-12T15:36:47.245Z,76.60
2024-02-12T15:40:00.805Z,76.40
2024-02-12T15:43:11.717Z,75.30
2024-02-12T15:46:14.446Z,75.40
2024-02-12T15:49:16.476Z,75.50
2024-02-12T15:52:18.811Z,76.10
2024-02-12T15:55:21.351Z,76.90
2024-02-12T15:58:23.396Z,77.10
2024-02-12T16:01:25.836Z,76.60
2024-02-12T16:04:27.865Z,77.60
2024-02-12T16:07:29.939Z,77.40
2024-02-12T16:10:38.208Z,76.80
2024-02-12T16:13:41.525Z,74.50
2024-02-12T16:16:45.651Z,74.10
2024-02-12T16:19:47.844Z,71.20
2024-02-12T16:22:55.526Z,71.10
2024-02-12T16:25:58.005Z,72.50
2024-02-12T16:29:00.184Z,72.20
2024-02-12T16:32:02.284Z,73.20
2024-02-12T16:35:04.989Z,72.50
2024-02-12T16:38:07.160Z,71.80
2024-02-12T16:41:09.795Z,72.70
2024-02-12T16:44:12.440Z,71.70
2024-02-12T16:47:14.643Z,71.70
2024-02-12T16:50:17.168Z,70.80
2024-02-12T16:53:19.742Z,71.00
2024-02-12T16:56:21.865Z,71.50
2024-02-12T16:59:24.154Z,71.20
2024-02-12T17:02:26.733Z,72.00
2024-02-12T17:05:31.388Z,73.90
2024-02-12T17:08:33.776Z,73.20
2024-02-12T17:11:35.903Z,73.70
2024-02-12T17:14:38.522Z,74.50
2024-02-12T17:17:42.399Z,74.20
2024-02-12T17:20:45.013Z,73.60
2024-02-12T17:23:47.223Z,73.10
2024-02-12T17:26:49.550Z,72.30
2024-02-12T17:29:51.835Z,72.10
2024-02-12T17:32:56.216Z,72.70
2024-02-12T17:35:58.846Z,72.50
2024-02-12T17:39:00.883Z,71.80
2024-02-12T17:42:10.688Z,71.80
2024-02-12T17:45:12.994Z,72.60
2024-02-12T17:48:15.139Z,72.90
2024-02-12T17:51:17.503Z,73.60
2024-02-12T17:54:19.805Z,74.60
2024-02-12T17:57:21.827Z,74.90
2024-02-12T18:00:24.217Z,74.40
2024-02-12T18:03:26.318Z,75.40
2024-02-12T18:06:28.559Z,75.90
2024-02-12T18:09:31.442Z,75.40
2024-02-12T18:12:33.700Z,76.20
2024-02-12T18:15:42.102Z,76.30
2024-02-12T18:18:46.908Z,76.80
2024-02-12T18:21:48.984Z,76.40
2024-02-12T18:24:51.202Z,76.50
2024-02-12T18:27:53.270Z,76.80
2024-02-12T18:30:56.046Z,76.60
2024-02-12T18:33:58.261Z,77.30
2024-02-12T18:37:00.435Z,77.60
2024-02-12T18:40:02.448Z,78.10
2024-02-12T18:43:04.836Z,77.80
2024-02-12T18:46:07.804Z,78.30
2024-02-12T18:49:09.958Z,78.00
2024-02-12T18:52:12.131Z,78.20
2024-02-12T18:55:14.525Z,78.20
2024-02-12T18:58:18.015Z,78.30
2024-02-12T19:01:20.475Z,78.60
2024-02-12T19:04:22.626Z,78.00
2024-02-12T19:07:24.666Z,78.40
2024-02-12T19:10:26.940Z,78.50
2024-02-12T19:13:28.963Z,79.00
2024-02-12T19:16:31.961Z,79.10
2024-02-12T19:19:35.272Z,79.40
2024-02-12T19:22:37.355Z,79.50
2024-02-12T19:25:39.536Z,79.30
2024-02-12T19:28:44.430Z,79.20
2024-02-12T19:31:46.531Z,79.20
2024-02-12T19:34:48.546Z,78.90
2024-02-12T19:37:50.633Z,79.00
2024-02-12T19:40:53.223Z,79.00
2024-02-12T19:43:55.278Z,79.00
2024-02-12T19:46:57.375Z,79.10
2024-02-12T19:49:59.783Z,79.50
2024-02-12T19:53:01.904Z,79.30
2024-02-12T19:56:04.052Z,79.00
2024-02-12T19:59:06.158Z,78.90
2024-02-12T20:02:10.001Z,79.00
2024-02-12T20:05:13.307Z,79.30
2024-02-12T20:08:16.089Z,79.30
2024-02-12T20:11:20.700Z,79.20
2024-02-12T20:14:23.578Z,79.40
2024-02-12T20:17:26.354Z,79.40
2024-02-12T20:20:28.442Z,79.50
2024-02-12T20:23:30.551Z,79.80
2024-02-12T20:26:33.000Z,80.50
2024-02-12T20:29:35.128Z,82.10
2024-02-12T20:32:38.973Z,82.60
2024-02-12T20:35:41.103Z,83.20
2024-02-12T20:38:43.217Z,83.30
2024-02-12T20:41:45.335Z,82.80
2024-02-12T20:44:47.885Z,82.20
2024-02-12T20:47:50.583Z,82.20
2024-02-12T20:50:52.972Z,82.80
2024-02-12T20:53:55.260Z,82.30
2024-02-12T20:56:57.571Z,82.00
2024-02-12T20:59:59.598Z,81.60
2024-02-12T21:03:01.813Z,81.60
2024-02-12T21:06:04.049Z,81.40
2024-02-12T21:09:06.297Z,81.40
2024-02-12T21:16:00.253Z,81.20
2024-02-12T21:19:02.273Z,81.20
2024-02-12T21:22:04.439Z,81.20
2024-02-12T21:25:06.809Z,81.30
2024-02-12T21:28:08.744Z,81.20
2024-02-12T21:31:10.774Z,81.30
2024-02-12T21:34:12.937Z,81.00
2024-02-12T21:37:15.013Z,81.20
2024-02-12T21:40:17.120Z,81.00
2024-02-12T21:43:19.284Z,80.90
2024-02-12T21:46:21.211Z,80.60
2024-02-12T21:49:23.354Z,80.40
2024-02-12T21:52:25.399Z,80.60
2024-02-12T21:55:27.412Z,81.10
2024-02-12T21:58:29.390Z,80.70
2024-02-12T22:01:31.410Z,81.20
2024-02-12T22:04:33.515Z,81.60
2024-02-12T22:07:35.563Z,81.50
2024-02-12T22:10:37.548Z,81.90
2024-02-12T22:13:39.670Z,82.50
2024-02-12T22:16:41.934Z,82.20
2024-02-12T22:19:44.109Z,82.00
2024-02-12T22:22:48.518Z,81.90
2024-02-12T22:25:50.557Z,82.00
2024-02-12T22:28:52.534Z,82.10
2024-02-12T22:31:54.707Z,81.70
2024-02-12T22:34:58.898Z,81.90
2024-02-12T22:38:01.451Z,82.10
2024-02-12T22:41:03.570Z,81.80
2024-02-12T22:44:05.986Z,81.80
2024-02-12T22:47:08.108Z,81.70
2024-02-12T22:50:10.656Z,81.80
2024-02-12T22:53:12.717Z,81.60
2024-02-12T22:56:14.743Z,81.70
2024-02-12T22:59:19.696Z,81.40
2024-02-12T23:02:21.930Z,81.40
2024-02-12T23:05:24.043Z,81.20
2024-02-12T23:08:26.595Z,80.70
2024-02-12T23:11:29.278Z,80.80
2024-02-12T23:14:31.676Z,80.30
2024-02-12T23:17:33.942Z,80.80
2024-02-12T23:20:36.819Z,80.80
2024-02-12T23:23:38.978Z,80.90
2024-02-12T23:26:41.295Z,80.70
2024-02-12T23:29:43.459Z,80.50
2024-02-12T23:32:45.814Z,80.80
2024-02-12T23:35:48.254Z,80.60
2024-02-12T23:38:50.770Z,80.60
2024-02-12T23:41:52.915Z,80.10
2024-02-12T23:44:55.081Z,80.20
2024-02-12T23:47:57.377Z,80.10
2024-02-12T23:50:59.638Z,80.30
2024-02-12T23:54:01.791Z,80.10
2024-02-12T23:57:04.131Z,80.10
